sensor_id;sensor_type;location;lat;lon;timestamp;pressure;altitude;pressure_sealevel;temperature;humidity
22104;BME280;11218;48.886;9.426;2022-11-14T00:01:17;98048.22;;;5.43;95.51
22104;BME280;11218;48.886;9.426;2022-11-14T00:07:51;98037.94;;;5.47;96.35
22104;BME280;11218;48.886;9.426;2022-11-14T00:11:03;98037.13;;;5.46;95.58
22104;BME280;11218;48.886;9.426;2022-11-14T00:14:35;98026.88;;;5.43;95.70
22104;BME280;11218;48.886;9.426;2022-11-14T00:21:43;98036.53;;;5.44;95.05
22104;BME280;11218;48.886;9.426;2022-11-14T00:24:37;98027.75;;;5.37;95.52
22104;BME280;11218;48.886;9.426;2022-11-14T00:27:24;98033.09;;;5.37;94.71
22104;BME280;11218;48.886;9.426;2022-11-14T00:29:52;98024.25;;;5.37;95.35
22104;BME280;11218;48.886;9.426;2022-11-14T00:32:20;98030.63;;;5.36;95.13
22104;BME280;11218;48.886;9.426;2022-11-14T00:34:50;98027.75;;;5.37;95.80
22104;BME280;11218;48.886;9.426;2022-11-14T00:37:17;98027.53;;;5.39;95.28
22104;BME280;11218;48.886;9.426;2022-11-14T00:39:45;98017.06;;;5.37;95.18
22104;BME280;11218;48.886;9.426;2022-11-14T00:42:13;98024.44;;;5.42;95.14
22104;BME280;11218;48.886;9.426;2022-11-14T00:44:41;98028.78;;;5.36;95.23
22104;BME280;11218;48.886;9.426;2022-11-14T00:47:09;98030.63;;;5.36;95.49
22104;BME280;11218;48.886;9.426;2022-11-14T00:49:36;98033.91;;;5.38;94.23
22104;BME280;11218;48.886;9.426;2022-11-14T00:52:07;98032.31;;;5.30;93.77
22104;BME280;11218;48.886;9.426;2022-11-14T00:54:34;98022.25;;;5.32;94.36
22104;BME280;11218;48.886;9.426;2022-11-14T00:57:02;98011.63;;;5.25;93.43
22104;BME280;11218;48.886;9.426;2022-11-14T00:59:30;98016.78;;;5.20;94.68
22104;BME280;11218;48.886;9.426;2022-11-14T01:01:58;98016.78;;;5.20;94.12
22104;BME280;11218;48.886;9.426;2022-11-14T01:04:26;98015.53;;;5.23;94.76
22104;BME280;11218;48.886;9.426;2022-11-14T01:06:54;98016.13;;;5.25;94.37
22104;BME280;11218;48.886;9.426;2022-11-14T01:09:24;98012.03;;;5.22;94.74
22104;BME280;11218;48.886;9.426;2022-11-14T01:11:51;98022.88;;;5.27;94.44
22104;BME280;11218;48.886;9.426;2022-11-14T01:14:19;98010.78;;;5.25;94.22
22104;BME280;11218;48.886;9.426;2022-11-14T01:16:47;98010.41;;;5.21;93.64
22104;BME280;11218;48.886;9.426;2022-11-14T01:19:15;98012.72;;;5.18;94.42
22104;BME280;11218;48.886;9.426;2022-11-14T01:21:43;98009.44;;;5.16;94.63
22104;BME280;11218;48.886;9.426;2022-11-14T01:24:10;98003.31;;;5.15;94.76
22104;BME280;11218;48.886;9.426;2022-11-14T01:26:40;98013.97;;;5.15;94.99
22104;BME280;11218;48.886;9.426;2022-11-14T01:29:07;98021.97;;;5.15;94.50
22104;BME280;11218;48.886;9.426;2022-11-14T01:31:35;98008.03;;;5.13;94.55
22104;BME280;11218;48.886;9.426;2022-11-14T01:34:03;98019.31;;;5.15;94.87
22104;BME280;11218;48.886;9.426;2022-11-14T01:36:31;98013.59;;;5.12;94.60
22104;BME280;11218;48.886;9.426;2022-11-14T01:38:59;98011.13;;;5.10;95.15
22104;BME280;11218;48.886;9.426;2022-11-14T01:41:27;97994.75;;;5.07;94.75
22104;BME280;11218;48.886;9.426;2022-11-14T01:43:56;97999.25;;;5.06;94.25
22104;BME280;11218;48.886;9.426;2022-11-14T01:46:25;97997.63;;;5.05;93.41
22104;BME280;11218;48.886;9.426;2022-11-14T01:48:58;97996.41;;;5.01;93.59
22104;BME280;11218;48.886;9.426;2022-11-14T01:51:28;97994.19;;;4.98;94.45
22104;BME280;11218;48.886;9.426;2022-11-14T01:53:59;97998.53;;;4.92;94.11
22104;BME280;11218;48.886;9.426;2022-11-14T01:56:30;97999.97;;;4.88;93.81
22104;BME280;11218;48.886;9.426;2022-11-14T01:59:02;97987.91;;;4.86;93.73
22104;BME280;11218;48.886;9.426;2022-11-14T02:01:35;97981.34;;;4.82;94.25
22104;BME280;11218;48.886;9.426;2022-11-14T02:04:04;97979.53;;;4.76;93.28
22104;BME280;11218;48.886;9.426;2022-11-14T02:06:39;97978.56;;;4.70;93.26
22104;BME280;11218;48.886;9.426;2022-11-14T02:09:08;97981.47;;;4.62;93.83
22104;BME280;11218;48.886;9.426;2022-11-14T02:11:39;97983.09;;;4.63;93.63
22104;BME280;11218;48.886;9.426;2022-11-14T02:14:10;97978.78;;;4.62;94.22
22104;BME280;11218;48.886;9.426;2022-11-14T02:16:40;97982.69;;;4.59;93.87
22104;BME280;11218;48.886;9.426;2022-11-14T02:19:40;97973.09;;;4.52;93.27
22104;BME280;11218;48.886;9.426;2022-11-14T02:22:09;97976.63;;;4.46;93.00
22104;BME280;11218;48.886;9.426;2022-11-14T02:24:37;97979.75;;;4.43;93.21
22104;BME280;11218;48.886;9.426;2022-11-14T02:27:05;97980.16;;;4.40;92.97
22104;BME280;11218;48.886;9.426;2022-11-14T02:29:34;97980.38;;;4.38;93.54
22104;BME280;11218;48.886;9.426;2022-11-14T02:32:02;97970.53;;;4.39;94.15
22104;BME280;11218;48.886;9.426;2022-11-14T02:34:36;97973.41;;;4.37;93.08
22104;BME280;11218;48.886;9.426;2022-11-14T02:37:04;97974.66;;;4.35;93.16
22104;BME280;11218;48.886;9.426;2022-11-14T02:39:33;97972.41;;;4.32;93.39
22104;BME280;11218;48.886;9.426;2022-11-14T02:42:01;97971.81;;;4.23;92.82
22104;BME280;11218;48.886;9.426;2022-11-14T02:44:29;97962.84;;;4.17;92.92
22104;BME280;11218;48.886;9.426;2022-11-14T02:46:56;97962.63;;;4.12;92.64
22104;BME280;11218;48.886;9.426;2022-11-14T02:49:24;97963.28;;;4.08;93.09
22104;BME280;11218;48.886;9.426;2022-11-14T02:51:52;97979.28;;;4.01;92.39
22104;BME280;11218;48.886;9.426;2022-11-14T02:54:20;97979.50;;;3.93;92.26
22104;BME280;11218;48.886;9.426;2022-11-14T02:56:49;97981.34;;;3.92;92.94
22104;BME280;11218;48.886;9.426;2022-11-14T02:59:17;97983.00;;;3.87;93.49
22104;BME280;11218;48.886;9.426;2022-11-14T03:01:45;97983.81;;;3.87;92.88
22104;BME280;11218;48.886;9.426;2022-11-14T03:04:13;97984.63;;;3.88;93.28
22104;BME280;11218;48.886;9.426;2022-11-14T03:06:41;97973.97;;;3.88;93.70
22104;BME280;11218;48.886;9.426;2022-11-14T03:09:08;97966.59;;;3.90;93.44
22104;BME280;11218;48.886;9.426;2022-11-14T03:11:37;97961.28;;;3.90;92.97
22104;BME280;11218;48.886;9.426;2022-11-14T03:14:06;97951.22;;;3.92;93.70
22104;BME280;11218;48.886;9.426;2022-11-14T03:16:34;97952.25;;;3.97;93.69
22104;BME280;11218;48.886;9.426;2022-11-14T03:19:02;97956.75;;;3.97;93.44
22104;BME280;11218;48.886;9.426;2022-11-14T03:21:30;97959.41;;;3.97;93.07
22104;BME280;11218;48.886;9.426;2022-11-14T03:23:58;97961.25;;;3.96;93.31
22104;BME280;11218;48.886;9.426;2022-11-14T03:26:26;97955.75;;;3.91;92.77
22104;BME280;11218;48.886;9.426;2022-11-14T03:28:54;97949.00;;;3.89;93.34
22104;BME280;11218;48.886;9.426;2022-11-14T03:31:23;97939.56;;;3.86;93.01
22104;BME280;11218;48.886;9.426;2022-11-14T03:33:51;97938.75;;;3.86;93.43
22104;BME280;11218;48.886;9.426;2022-11-14T03:36:19;97929.56;;;3.82;92.88
22104;BME280;11218;48.886;9.426;2022-11-14T03:38:47;97930.59;;;3.81;93.45
22104;BME280;11218;48.886;9.426;2022-11-14T03:41:14;97928.34;;;3.78;93.14
22104;BME280;11218;48.886;9.426;2022-11-14T03:43:42;97920.16;;;3.73;93.00
22104;BME280;11218;48.886;9.426;2022-11-14T03:46:10;97914.88;;;3.66;92.87
22104;BME280;11218;48.886;9.426;2022-11-14T03:48:39;97919.38;;;3.66;93.07
22104;BME280;11218;48.886;9.426;2022-11-14T03:51:07;97926.97;;;3.62;93.48
22104;BME280;11218;48.886;9.426;2022-11-14T03:53:35;97941.91;;;3.63;93.59
22104;BME280;11218;48.886;9.426;2022-11-14T03:56:03;97945.19;;;3.65;93.44
22104;BME280;11218;48.886;9.426;2022-11-14T03:58:31;97956.84;;;3.64;93.31
22104;BME280;11218;48.886;9.426;2022-11-14T04:00:59;97956.25;;;3.62;93.14
22104;BME280;11218;48.886;9.426;2022-11-14T04:03:29;97961.56;;;3.62;92.83
22104;BME280;11218;48.886;9.426;2022-11-14T04:05:58;97957.47;;;3.59;93.37
22104;BME280;11218;48.886;9.426;2022-11-14T04:08:26;97949.28;;;3.61;92.75
22104;BME280;11218;48.886;9.426;2022-11-14T04:10:54;97957.47;;;3.59;92.82
22104;BME280;11218;48.886;9.426;2022-11-14T04:13:22;97951.13;;;3.60;92.91
22104;BME280;11218;48.886;9.426;2022-11-14T04:15:53;97944.56;;;3.63;92.93
22104;BME280;11218;48.886;9.426;2022-11-14T04:18:22;97939.47;;;3.61;92.63
22104;BME280;11218;48.886;9.426;2022-11-14T04:20:50;97942.94;;;3.62;92.96
22104;BME280;11218;48.886;9.426;2022-11-14T04:23:20;97943.53;;;3.64;93.18
22104;BME280;11218;48.886;9.426;2022-11-14T04:25:48;97938.22;;;3.64;93.20
22104;BME280;11218;48.886;9.426;2022-11-14T04:28:16;97939.44;;;3.68;93.07
22104;BME280;11218;48.886;9.426;2022-11-14T04:30:44;97938.63;;;3.68;93.33
22104;BME280;11218;48.886;9.426;2022-11-14T04:33:12;97941.91;;;3.70;92.50
22104;BME280;11218;48.886;9.426;2022-11-14T04:35:40;97943.53;;;3.71;92.83
22104;BME280;11218;48.886;9.426;2022-11-14T04:38:08;97934.72;;;3.70;93.24
22104;BME280;11218;48.886;9.426;2022-11-14T04:40:38;97923.84;;;3.72;93.42
22104;BME280;11218;48.886;9.426;2022-11-14T04:43:05;97910.34;;;3.73;93.67
22104;BME280;11218;48.886;9.426;2022-11-14T04:45:33;97891.91;;;3.72;93.65
22104;BME280;11218;48.886;9.426;2022-11-14T04:48:01;97884.97;;;3.71;93.90
22104;BME280;11218;48.886;9.426;2022-11-14T04:50:29;97898.66;;;3.74;94.14
22104;BME280;11218;48.886;9.426;2022-11-14T04:52:57;97891.69;;;3.73;94.12
22104;BME280;11218;48.886;9.426;2022-11-14T04:55:25;97890.03;;;3.79;93.75
22104;BME280;11218;48.886;9.426;2022-11-14T04:57:56;97892.50;;;3.80;93.68
22104;BME280;11218;48.886;9.426;2022-11-14T05:00:24;97885.13;;;3.82;93.59
22104;BME280;11218;48.886;9.426;2022-11-14T05:02:53;97885.72;;;3.84;93.73
22104;BME280;11218;48.886;9.426;2022-11-14T05:05:20;97883.88;;;3.85;93.77
22104;BME280;11218;48.886;9.426;2022-11-14T05:07:48;97887.56;;;3.84;93.71
22104;BME280;11218;48.886;9.426;2022-11-14T05:10:16;97883.06;;;3.84;93.84
22104;BME280;11218;48.886;9.426;2022-11-14T05:12:44;97875.50;;;3.81;93.62
22104;BME280;11218;48.886;9.426;2022-11-14T05:15:13;97887.78;;;3.82;93.75
22104;BME280;11218;48.886;9.426;2022-11-14T05:17:41;97883.28;;;3.83;93.78
22104;BME280;11218;48.886;9.426;2022-11-14T05:20:10;97878.78;;;3.83;93.77
22104;BME280;11218;48.886;9.426;2022-11-14T05:22:38;97872.03;;;3.81;93.76
22104;BME280;11218;48.886;9.426;2022-11-14T05:25:07;97871.00;;;3.82;93.87
22104;BME280;11218;48.886;9.426;2022-11-14T05:27:35;97868.13;;;3.83;93.87
22104;BME280;11218;48.886;9.426;2022-11-14T05:30:03;97864.25;;;3.79;94.05
22104;BME280;11218;48.886;9.426;2022-11-14T05:32:33;97880.22;;;3.79;93.92
22104;BME280;11218;48.886;9.426;2022-11-14T05:35:00;97885.75;;;3.78;93.81
22104;BME280;11218;48.886;9.426;2022-11-14T05:37:29;97868.34;;;3.82;93.43
22104;BME280;11218;48.886;9.426;2022-11-14T05:39:56;97870.97;;;3.88;93.10
22104;BME280;11218;48.886;9.426;2022-11-14T05:42:26;97876.31;;;3.82;92.75
22104;BME280;11218;48.886;9.426;2022-11-14T05:44:54;97877.94;;;3.83;93.17
22104;BME280;11218;48.886;9.426;2022-11-14T05:47:21;97871.63;;;3.77;93.14
22104;BME280;11218;48.886;9.426;2022-11-14T05:49:51;97865.69;;;3.75;93.64
22104;BME280;11218;48.886;9.426;2022-11-14T05:52:19;97861.41;;;3.74;93.83
22104;BME280;11218;48.886;9.426;2022-11-14T05:54:46;97868.97;;;3.77;93.97
22104;BME280;11218;48.886;9.426;2022-11-14T05:57:16;97868.97;;;3.77;93.57
22104;BME280;11218;48.886;9.426;2022-11-14T05:59:43;97870.19;;;3.81;93.57
22104;BME280;11218;48.886;9.426;2022-11-14T06:02:11;97872.22;;;3.79;93.44
22104;BME280;11218;48.886;9.426;2022-11-14T06:04:39;97865.66;;;3.82;93.45
22104;BME280;11218;48.886;9.426;2022-11-14T06:07:09;97867.31;;;3.83;93.62
22104;BME280;11218;48.886;9.426;2022-11-14T06:09:41;97874.06;;;3.85;94.54
22104;BME280;11218;48.886;9.426;2022-11-14T06:12:09;97875.06;;;3.91;94.06
22104;BME280;11218;48.886;9.426;2022-11-14T06:14:37;97876.47;;;3.93;94.33
22104;BME280;11218;48.886;9.426;2022-11-14T06:17:05;97873.41;;;3.96;94.88
22104;BME280;11218;48.886;9.426;2022-11-14T06:19:33;97872.16;;;3.99;94.81
22104;BME280;11218;48.886;9.426;2022-11-14T06:22:01;97870.69;;;4.03;94.60
22104;BME280;11218;48.886;9.426;2022-11-14T06:24:30;97877.44;;;4.06;94.28
22104;BME280;11218;48.886;9.426;2022-11-14T06:26:58;97878.06;;;4.08;95.09
22104;BME280;11218;48.886;9.426;2022-11-14T06:29:36;97874.97;;;4.11;95.23
22104;BME280;11218;48.886;9.426;2022-11-14T06:32:05;97875.34;;;4.14;94.94
22104;BME280;11218;48.886;9.426;2022-11-14T06:34:33;97873.09;;;4.18;95.08
22104;BME280;11218;48.886;9.426;2022-11-14T06:37:01;97873.09;;;4.18;94.98
22104;BME280;11218;48.886;9.426;2022-11-14T06:39:32;97882.28;;;4.22;95.14
22104;BME280;11218;48.886;9.426;2022-11-14T06:42:00;97892.31;;;4.26;95.26
22104;BME280;11218;48.886;9.426;2022-11-14T06:44:27;97891.06;;;4.29;95.14
22104;BME280;11218;48.886;9.426;2022-11-14T06:46:56;97890.63;;;4.32;95.34
22104;BME280;11218;48.886;9.426;2022-11-14T06:49:24;97894.94;;;4.33;95.38
22104;BME280;11218;48.886;9.426;2022-11-14T06:51:53;97899.03;;;4.36;95.11
22104;BME280;11218;48.886;9.426;2022-11-14T06:54:21;97898.00;;;4.37;95.09
22104;BME280;11218;48.886;9.426;2022-11-14T06:56:50;97899.19;;;4.41;95.16
22104;BME280;11218;48.886;9.426;2022-11-14T06:59:18;97889.75;;;4.45;94.78
22104;BME280;11218;48.886;9.426;2022-11-14T07:01:46;97895.66;;;4.47;95.07
22104;BME280;11218;48.886;9.426;2022-11-14T07:04:14;97892.56;;;4.50;94.98
22104;BME280;11218;48.886;9.426;2022-11-14T07:06:42;97891.47;;;4.57;94.88
22104;BME280;11218;48.886;9.426;2022-11-14T07:09:10;97892.91;;;4.60;94.89
22104;BME280;11218;48.886;9.426;2022-11-14T07:11:38;97901.72;;;4.60;94.80
22104;BME280;11218;48.886;9.426;2022-11-14T07:14:08;97892.91;;;4.60;94.97
22104;BME280;11218;48.886;9.426;2022-11-14T07:16:36;97895.34;;;4.61;94.79
22104;BME280;11218;48.886;9.426;2022-11-14T07:19:06;97894.91;;;4.65;94.92
22104;BME280;11218;48.886;9.426;2022-11-14T07:21:35;97888.56;;;4.66;95.15
22104;BME280;11218;48.886;9.426;2022-11-14T07:24:04;97883.81;;;4.68;94.62
22104;BME280;11218;48.886;9.426;2022-11-14T07:26:32;97884.38;;;4.76;94.82
22104;BME280;11218;48.886;9.426;2022-11-14T07:29:00;97883.94;;;4.79;94.78
22104;BME280;11218;48.886;9.426;2022-11-14T07:31:30;97883.72;;;4.81;94.71
22104;BME280;11218;48.886;9.426;2022-11-14T07:33:57;97885.53;;;4.87;94.84
22104;BME280;11218;48.886;9.426;2022-11-14T07:36:25;97890.88;;;4.87;94.43
22104;BME280;11218;48.886;9.426;2022-11-14T07:38:56;97896.81;;;4.89;94.76
22104;BME280;11218;48.886;9.426;2022-11-14T07:41:24;97906.16;;;4.98;94.49
22104;BME280;11218;48.886;9.426;2022-11-14T07:43:52;97901.06;;;4.97;94.37
22104;BME280;11218;48.886;9.426;2022-11-14T07:46:20;97899.81;;;4.99;94.62
22104;BME280;11218;48.886;9.426;2022-11-14T07:48:50;97907.59;;;5.01;94.62
22104;BME280;11218;48.886;9.426;2022-11-14T07:51:19;97912.47;;;5.04;95.25
22104;BME280;11218;48.886;9.426;2022-11-14T07:53:47;97916.34;;;5.08;94.89
22104;BME280;11218;48.886;9.426;2022-11-14T07:56:15;97925.34;;;5.13;94.26
22104;BME280;11218;48.886;9.426;2022-11-14T07:58:43;97937.00;;;5.19;94.89
22104;BME280;11218;48.886;9.426;2022-11-14T08:01:12;97926.59;;;5.29;94.41
22104;BME280;11218;48.886;9.426;2022-11-14T08:03:41;97930.03;;;5.36;94.79
22104;BME280;11218;48.886;9.426;2022-11-14T08:06:14;97936.06;;;5.50;95.39
22104;BME280;11218;48.886;9.426;2022-11-14T08:08:42;97949.53;;;5.61;94.07
22104;BME280;11218;48.886;9.426;2022-11-14T08:11:10;97940.03;;;5.66;94.50
22104;BME280;11218;48.886;9.426;2022-11-14T08:13:48;97949.84;;;5.72;94.17
22104;BME280;11218;48.886;9.426;2022-11-14T08:16:16;97935.44;;;5.73;94.53
22104;BME280;11218;48.886;9.426;2022-11-14T08:18:44;97939.31;;;5.77;93.85
22104;BME280;11218;48.886;9.426;2022-11-14T08:21:13;97941.31;;;5.81;95.29
22104;BME280;11218;48.886;9.426;2022-11-14T08:23:41;97942.50;;;5.85;94.43
22104;BME280;11218;48.886;9.426;2022-11-14T08:26:10;97955.22;;;5.90;94.30
22104;BME280;11218;48.886;9.426;2022-11-14T08:28:38;97946.28;;;5.96;95.10
22104;BME280;11218;48.886;9.426;2022-11-14T08:31:06;97951.13;;;6.06;94.34
22104;BME280;11218;48.886;9.426;2022-11-14T08:33:35;97940.28;;;6.19;94.04
22104;BME280;11218;48.886;9.426;2022-11-14T08:36:05;97941.44;;;6.41;94.94
22104;BME280;11218;48.886;9.426;2022-11-14T08:38:35;97944.22;;;6.65;94.56
22104;BME280;11218;48.886;9.426;2022-11-14T08:41:03;97942.88;;;6.85;93.24
22104;BME280;11218;48.886;9.426;2022-11-14T08:43:31;97942.44;;;7.00;93.44
22104;BME280;11218;48.886;9.426;2022-11-14T08:46:00;97944.34;;;7.23;91.85
22104;BME280;11218;48.886;9.426;2022-11-14T08:48:28;97950.88;;;7.27;92.21
22104;BME280;11218;48.886;9.426;2022-11-14T08:51:01;97954.03;;;7.36;91.79
22104;BME280;11218;48.886;9.426;2022-11-14T08:53:30;97952.28;;;7.41;91.02
22104;BME280;11218;48.886;9.426;2022-11-14T08:55:59;97961.69;;;7.44;90.67
22104;BME280;11218;48.886;9.426;2022-11-14T08:58:27;97962.41;;;7.51;90.61
22104;BME280;11218;48.886;9.426;2022-11-14T09:01:01;97962.75;;;7.54;91.50
22104;BME280;11218;48.886;9.426;2022-11-14T09:03:29;97954.72;;;7.54;91.46
22104;BME280;11218;48.886;9.426;2022-11-14T09:05:57;97961.59;;;7.62;91.08
22104;BME280;11218;48.886;9.426;2022-11-14T09:08:26;97964.50;;;7.61;91.00
22104;BME280;11218;48.886;9.426;2022-11-14T09:11:00;97965.09;;;7.63;91.39
22104;BME280;11218;48.886;9.426;2022-11-14T09:13:31;97970.91;;;7.59;91.61
22104;BME280;11218;48.886;9.426;2022-11-14T09:15:59;97966.50;;;7.65;90.99
22104;BME280;11218;48.886;9.426;2022-11-14T09:18:28;97980.59;;;7.84;91.78
22104;BME280;11218;48.886;9.426;2022-11-14T09:20:59;97967.31;;;7.77;92.31
22104;BME280;11218;48.886;9.426;2022-11-14T09:23:27;97974.19;;;7.73;92.52
22104;BME280;11218;48.886;9.426;2022-11-14T09:25:56;97978.72;;;7.73;92.07
22104;BME280;11218;48.886;9.426;2022-11-14T09:28:25;97973.84;;;7.81;92.35
22104;BME280;11218;48.886;9.426;2022-11-14T09:30:59;97966.03;;;7.80;93.05
22104;BME280;11218;48.886;9.426;2022-11-14T09:33:27;97967.41;;;7.71;93.74
22104;BME280;11218;48.886;9.426;2022-11-14T09:35:56;97970.56;;;7.68;93.86
22104;BME280;11218;48.886;9.426;2022-11-14T09:38:24;97980.81;;;7.71;95.14
22104;BME280;11218;48.886;9.426;2022-11-14T09:41:01;97980.00;;;7.70;95.55
22104;BME280;11218;48.886;9.426;2022-11-14T09:43:46;97965.78;;;7.70;96.27
22104;BME280;11218;48.886;9.426;2022-11-14T09:46:21;97978.72;;;7.73;96.11
22104;BME280;11218;48.886;9.426;2022-11-14T09:48:51;97975.00;;;7.74;96.54
22104;BME280;11218;48.886;9.426;2022-11-14T09:51:21;97967.53;;;7.76;97.52
22104;BME280;11218;48.886;9.426;2022-11-14T09:53:54;97962.66;;;7.84;97.92
22104;BME280;11218;48.886;9.426;2022-11-14T09:56:25;97961.00;;;7.83;98.41
22104;BME280;11218;48.886;9.426;2022-11-14T09:58:54;97949.72;;;7.93;98.88
22104;BME280;11218;48.886;9.426;2022-11-14T10:01:31;97949.38;;;7.89;98.81
22104;BME280;11218;48.886;9.426;2022-11-14T10:04:11;97950.88;;;7.97;98.71
22104;BME280;11218;48.886;9.426;2022-11-14T10:06:46;97946.44;;;8.03;98.78
22104;BME280;11218;48.886;9.426;2022-11-14T10:09:43;97934.63;;;8.15;98.70
22104;BME280;11218;48.886;9.426;2022-11-14T10:12:20;97931.56;;;8.23;99.10
22104;BME280;11218;48.886;9.426;2022-11-14T10:15:00;97928.16;;;8.28;99.22
22104;BME280;11218;48.886;9.426;2022-11-14T10:17:43;97921.88;;;8.34;99.20
22104;BME280;11218;48.886;9.426;2022-11-14T10:20:19;97913.38;;;8.37;99.11
22104;BME280;11218;48.886;9.426;2022-11-14T10:22:59;97917.34;;;8.35;99.02
22104;BME280;11218;48.886;9.426;2022-11-14T10:25:35;97914.28;;;8.43;98.25
22104;BME280;11218;48.886;9.426;2022-11-14T10:28:38;97917.19;;;8.41;98.70
22104;BME280;11218;48.886;9.426;2022-11-14T10:31:18;97915.09;;;8.43;98.09
22104;BME280;11218;48.886;9.426;2022-11-14T10:33:56;97919.97;;;8.46;98.22
22104;BME280;11218;48.886;9.426;2022-11-14T10:39:20;97914.13;;;8.49;98.59
22104;BME280;11218;48.886;9.426;2022-11-14T10:41:55;97914.00;;;8.56;97.95
22104;BME280;11218;48.886;9.426;2022-11-14T10:44:34;97907.81;;;8.55;97.85
22104;BME280;11218;48.886;9.426;2022-11-14T10:47:08;97920.66;;;8.53;97.92
22104;BME280;11218;48.886;9.426;2022-11-14T10:49:39;97910.59;;;8.61;98.37
22104;BME280;11218;48.886;9.426;2022-11-14T10:52:11;97910.44;;;8.67;97.38
22104;BME280;11218;48.886;9.426;2022-11-14T10:54:44;97909.41;;;8.68;97.74
22104;BME280;11218;48.886;9.426;2022-11-14T10:57:14;97915.56;;;8.69;97.72
22104;BME280;11218;48.886;9.426;2022-11-14T10:59:43;97908.34;;;8.69;97.41
22104;BME280;11218;48.886;9.426;2022-11-14T11:02:12;97920.78;;;8.75;97.03
22104;BME280;11218;48.886;9.426;2022-11-14T11:04:41;97916.00;;;8.77;97.47
22104;BME280;11218;48.886;9.426;2022-11-14T11:07:19;97910.25;;;8.85;97.32
22104;BME280;11218;48.886;9.426;2022-11-14T11:10:06;97909.19;;;8.86;97.42
22104;BME280;11218;48.886;9.426;2022-11-14T11:12:53;97908.53;;;8.96;97.10
22104;BME280;11218;48.886;9.426;2022-11-14T11:15:24;97908.03;;;8.99;96.53
22104;BME280;11218;48.886;9.426;2022-11-14T11:17:55;97897.97;;;9.06;96.54
22104;BME280;11218;48.886;9.426;2022-11-14T11:20:32;97893.97;;;9.09;96.59
22104;BME280;11218;48.886;9.426;2022-11-14T11:23:03;97892.84;;;9.21;95.59
22104;BME280;11218;48.886;9.426;2022-11-14T11:25:32;97895.19;;;9.35;94.89
22104;BME280;11218;48.886;9.426;2022-11-14T11:28:06;97891.13;;;9.49;93.96
22104;BME280;11218;48.886;9.426;2022-11-14T11:30:34;97878.66;;;9.60;93.80
22104;BME280;11218;48.886;9.426;2022-11-14T11:33:22;97883.38;;;9.74;92.73
22104;BME280;11218;48.886;9.426;2022-11-14T11:35:54;97878.72;;;9.86;91.88
22104;BME280;11218;48.886;9.426;2022-11-14T11:38:25;97878.91;;;10.02;90.59
22104;BME280;11218;48.886;9.426;2022-11-14T11:40:59;97880.16;;;10.16;89.01
22104;BME280;11218;48.886;9.426;2022-11-14T11:43:35;97874.13;;;10.26;89.57
22104;BME280;11218;48.886;9.426;2022-11-14T11:46:14;97879.38;;;10.37;88.71
22104;BME280;11218;48.886;9.426;2022-11-14T11:48:48;97875.88;;;10.42;88.62
22104;BME280;11218;48.886;9.426;2022-11-14T11:51:21;97870.88;;;10.50;87.62
22104;BME280;11218;48.886;9.426;2022-11-14T11:53:57;97876.06;;;10.57;87.81
22104;BME280;11218;48.886;9.426;2022-11-14T11:56:30;97870.22;;;10.65;87.23
22104;BME280;11218;48.886;9.426;2022-11-14T11:59:06;97871.13;;;10.76;85.81
22104;BME280;11218;48.886;9.426;2022-11-14T12:01:42;97871.19;;;10.81;86.36
22104;BME280;11218;48.886;9.426;2022-11-14T12:04:12;97861.78;;;10.83;84.97
22104;BME280;11218;48.886;9.426;2022-11-14T12:06:45;97863.72;;;10.88;85.89
22104;BME280;11218;48.886;9.426;2022-11-14T12:09:18;97865.13;;;10.96;84.83
22104;BME280;11218;48.886;9.426;2022-11-14T12:11:51;97862.72;;;10.99;85.11
22104;BME280;11218;48.886;9.426;2022-11-14T12:14:54;97864.41;;;11.05;84.23
22104;BME280;11218;48.886;9.426;2022-11-14T12:17:39;97861.44;;;11.07;84.52
22104;BME280;11218;48.886;9.426;2022-11-14T12:20:44;97869.91;;;11.26;81.93
22104;BME280;11218;48.886;9.426;2022-11-14T12:23:46;97865.03;;;11.23;82.63
22104;BME280;11218;48.886;9.426;2022-11-14T12:32:26;97857.78;;;11.23;82.65
22104;BME280;11218;48.886;9.426;2022-11-14T12:34:58;97857.78;;;11.23;82.66
22104;BME280;11218;48.886;9.426;2022-11-14T12:37:32;97862.34;;;11.23;82.25
22104;BME280;11218;48.886;9.426;2022-11-14T12:40:04;97853.75;;;11.26;82.44
22104;BME280;11218;48.886;9.426;2022-11-14T12:42:33;97852.72;;;11.32;81.99
22104;BME280;11218;48.886;9.426;2022-11-14T12:45:01;97851.69;;;11.38;81.32
22104;BME280;11218;48.886;9.426;2022-11-14T12:47:29;97846.81;;;11.35;82.00
22104;BME280;11218;48.886;9.426;2022-11-14T12:50:00;97855.19;;;11.38;81.39
22104;BME280;11218;48.886;9.426;2022-11-14T12:52:47;97849.88;;;11.48;81.11
22104;BME280;11218;48.886;9.426;2022-11-14T12:55:58;97855.84;;;11.56;80.28
22104;BME280;11218;48.886;9.426;2022-11-14T12:58:44;97854.31;;;11.70;80.21
22104;BME280;11218;48.886;9.426;2022-11-14T13:01:38;97847.78;;;12.13;79.19
22104;BME280;11218;48.886;9.426;2022-11-14T13:04:28;97842.75;;;12.42;79.23
22104;BME280;11218;48.886;9.426;2022-11-14T13:07:12;97846.53;;;12.66;77.32
22104;BME280;11218;48.886;9.426;2022-11-14T13:10:11;97840.59;;;12.74;77.00
22104;BME280;11218;48.886;9.426;2022-11-14T13:12:41;97834.94;;;12.71;76.10
22104;BME280;11218;48.886;9.426;2022-11-14T13:15:29;97838.47;;;12.61;76.50
22104;BME280;11218;48.886;9.426;2022-11-14T13:18:20;97832.75;;;12.47;76.55
22104;BME280;11218;48.886;9.426;2022-11-14T13:21:17;97838.44;;;12.46;76.25
22104;BME280;11218;48.886;9.426;2022-11-14T13:24:11;97837.91;;;12.49;76.19
22104;BME280;11218;48.886;9.426;2022-11-14T13:26:47;97837.66;;;12.61;76.64
22104;BME280;11218;48.886;9.426;2022-11-14T13:35:20;97833.31;;;12.75;74.31
22104;BME280;11218;48.886;9.426;2022-11-14T13:38:11;97831.44;;;12.75;74.69
22104;BME280;11218;48.886;9.426;2022-11-14T13:40:52;97834.13;;;12.86;75.19
22104;BME280;11218;48.886;9.426;2022-11-14T13:43:36;97825.22;;;12.95;74.28
22104;BME280;11218;48.886;9.426;2022-11-14T13:46:17;97828.19;;;13.09;73.14
22104;BME280;11218;48.886;9.426;2022-11-14T13:49:13;97831.75;;;13.20;73.21
22104;BME280;11218;48.886;9.426;2022-11-14T13:51:50;97826.06;;;13.26;72.86
22104;BME280;11218;48.886;9.426;2022-11-14T13:54:19;97823.63;;;13.30;73.42
22104;BME280;11218;48.886;9.426;2022-11-14T13:56:54;97826.56;;;13.38;72.21
22104;BME280;11218;48.886;9.426;2022-11-14T14:05:22;97831.69;;;13.50;71.30